createdAt,value
2023-05-25T00:01:21.550Z,98720.16
2023-05-25T00:03:49.697Z,98721.84
2023-05-25T00:06:18.406Z,98719.91
2023-05-25T00:08:46.681Z,98715.94
2023-05-25T00:11:14.739Z,98723.28
2023-05-25T00:13:44.205Z,98725.78
2023-05-25T00:16:12.304Z,98731.16
2023-05-25T00:18:40.399Z,98732.16
2023-05-25T00:21:08.494Z,98715.16
2023-05-25T00:23:36.854Z,98728.28
2023-05-25T00:26:05.558Z,98725.28
2023-05-25T00:28:33.763Z,98740.81
2023-05-25T00:31:03.264Z,98731.63
2023-05-25T00:33:31.576Z,98730.44
2023-05-25T00:36:00.422Z,98732.41
2023-05-25T00:38:28.654Z,98728.09
2023-05-25T00:40:57.516Z,98736.38
2023-05-25T00:43:25.645Z,98738.44
2023-05-25T00:45:55.135Z,98731.94
2023-05-25T00:48:26.703Z,98736.00
2023-05-25T00:50:58.087Z,98740.97
2023-05-25T00:53:27.852Z,98733.88
2023-05-25T00:56:03.514Z,98730.63
2023-05-25T00:58:35.922Z,98734.72
2023-05-25T01:01:06.495Z,98740.50
2023-05-25T01:03:38.431Z,98741.28
2023-05-25T01:06:13.269Z,98741.63
2023-05-25T01:08:45.536Z,98738.69
2023-05-25T01:11:16.410Z,98740.56
2023-05-25T01:13:46.187Z,98740.50
2023-05-25T01:16:15.326Z,98732.44
2023-05-25T01:18:44.905Z,98735.47
2023-05-25T01:21:22.144Z,98726.88
2023-05-25T01:23:56.497Z,98734.63
2023-05-25T01:26:28.343Z,98744.25
2023-05-25T01:28:59.448Z,98736.59
2023-05-25T01:31:27.902Z,98745.47
2023-05-25T01:33:57.691Z,98735.47
2023-05-25T01:36:27.187Z,98734.72
2023-05-25T01:38:55.718Z,98738.75
2023-05-25T01:41:23.829Z,98739.53
2023-05-25T01:43:52.425Z,98740.31
2023-05-25T01:46:28.541Z,98743.56
2023-05-25T01:49:04.179Z,98742.81
2023-05-25T01:51:45.087Z,98742.28
2023-05-25T01:54:20.264Z,98746.53
2023-05-25T01:56:52.123Z,98747.13
2023-05-25T01:59:22.800Z,98739.78
2023-05-25T02:01:53.866Z,98740.41
2023-05-25T02:04:23.218Z,98745.47
2023-05-25T02:06:54.067Z,98742.78
2023-05-25T02:09:22.151Z,98739.69
2023-05-25T02:11:52.098Z,98733.88
2023-05-25T02:14:20.233Z,98743.03
2023-05-25T02:16:48.462Z,98734.09
2023-05-25T02:19:16.577Z,98732.88
2023-05-25T02:21:45.176Z,98735.41
2023-05-25T02:24:14.838Z,98736.41
2023-05-25T02:26:42.876Z,98722.53
2023-05-25T02:29:11.761Z,98725.63
2023-05-25T02:31:39.967Z,98715.53
2023-05-25T02:34:08.103Z,98722.00
2023-05-25T02:36:36.413Z,98718.13
2023-05-25T02:39:06.254Z,98720.66
2023-05-25T02:41:35.676Z,98713.16
2023-05-25T02:44:03.740Z,98711.94
2023-05-25T02:46:33.797Z,98723.28
2023-05-25T02:49:02.260Z,98719.13
2023-05-25T02:51:30.811Z,98722.56
2023-05-25T02:54:01.354Z,98718.16
2023-05-25T02:56:29.594Z,98711.53
2023-05-25T02:59:00.389Z,98721.41
2023-05-25T03:01:32.721Z,98718.34
2023-05-25T03:04:01.909Z,98713.47
2023-05-25T03:06:36.704Z,98720.25
2023-05-25T03:09:15.149Z,98711.75
2023-05-25T03:11:43.495Z,98724.59
2023-05-25T03:14:17.194Z,98721.03
2023-05-25T03:16:53.708Z,98716.88
2023-05-25T03:19:22.642Z,98729.66
2023-05-25T03:21:50.680Z,98723.69
2023-05-25T03:24:20.329Z,98726.97
2023-05-25T03:26:48.404Z,98731.41
2023-05-25T03:29:18.836Z,98740.13
2023-05-25T03:31:47.348Z,98724.00
2023-05-25T03:34:16.144Z,98742.28
2023-05-25T03:36:46.010Z,98743.53
2023-05-25T03:39:15.317Z,98740.28
2023-05-25T03:41:44.311Z,98733.38
2023-05-25T03:44:12.804Z,98740.63
2023-05-25T03:46:43.354Z,98740.63
2023-05-25T03:49:14.182Z,98744.38
2023-05-25T03:51:42.959Z,98743.56
2023-05-25T03:54:11.726Z,98750.81
2023-05-25T03:56:39.873Z,98753.53
2023-05-25T03:59:08.079Z,98751.78
2023-05-25T04:01:39.094Z,98752.84
2023-05-25T04:04:08.866Z,98759.44
2023-05-25T04:06:38.341Z,98754.47
2023-05-25T04:09:07.903Z,98763.53
2023-05-25T04:11:36.026Z,98770.34
2023-05-25T04:14:04.189Z,98761.38
2023-05-25T04:16:35.892Z,98757.69
2023-05-25T04:19:05.144Z,98764.00
2023-05-25T04:21:34.877Z,98763.03
2023-05-25T04:24:03.558Z,98773.03
2023-05-25T04:26:32.083Z,98768.78
2023-05-25T04:29:02.470Z,98768.72
2023-05-25T04:31:49.801Z,98774.34
2023-05-25T04:34:34.239Z,98776.03
2023-05-25T04:37:09.232Z,98773.59
2023-05-25T04:39:38.332Z,98772.78
2023-05-25T04:42:06.860Z,98783.25
2023-05-25T04:44:36.292Z,98783.75
2023-05-25T04:47:07.355Z,98785.09
2023-05-25T04:49:36.152Z,98791.38
2023-05-25T04:52:04.985Z,98788.84
2023-05-25T04:54:34.395Z,98790.09
2023-05-25T04:57:04.208Z,98786.50
2023-05-25T04:59:33.174Z,98792.97
2023-05-25T05:02:02.096Z,98798.81
2023-05-25T05:04:30.577Z,98794.59
2023-05-25T05:07:00.048Z,98800.72
2023-05-25T05:09:30.699Z,98804.06
2023-05-25T05:12:03.103Z,98806.66
2023-05-25T05:14:36.481Z,98808.69
2023-05-25T05:17:04.701Z,98806.66
2023-05-25T05:19:33.849Z,98809.97
2023-05-25T05:22:02.037Z,98814.63
2023-05-25T05:24:30.276Z,98817.38
2023-05-25T05:26:59.736Z,98826.00
2023-05-25T05:29:34.339Z,98820.44
2023-05-25T05:32:02.633Z,98827.94
2023-05-25T05:34:31.705Z,98828.84
2023-05-25T05:37:03.929Z,98826.81
2023-05-25T05:39:32.095Z,98833.19
2023-05-25T05:42:00.431Z,98832.66
2023-05-25T05:44:29.440Z,98835.53
2023-05-25T05:47:01.824Z,98835.53
2023-05-25T05:49:32.018Z,98834.66
2023-05-25T05:52:01.984Z,98830.75
2023-05-25T05:54:30.179Z,98832.78
2023-05-25T05:57:02.495Z,98832.34
2023-05-25T05:59:30.594Z,98828.75
2023-05-25T06:02:00.630Z,98835.41
2023-05-25T06:04:29.236Z,98832.06
2023-05-25T06:06:59.212Z,98831.34
2023-05-25T06:09:27.621Z,98840.03
2023-05-25T06:11:59.783Z,98839.13
2023-05-25T06:14:28.875Z,98841.28
2023-05-25T06:17:02.857Z,98840.94
2023-05-25T06:19:31.203Z,98839.72
2023-05-25T06:21:59.334Z,98842.28
2023-05-25T06:24:27.473Z,98850.63
2023-05-25T06:26:55.623Z,98847.28
2023-05-25T06:29:23.813Z,98849.44
2023-05-25T06:31:51.955Z,98867.41
2023-05-25T06:34:21.597Z,98859.09
2023-05-25T06:36:49.768Z,98867.44
2023-05-25T06:39:17.923Z,98862.16
2023-05-25T06:41:46.064Z,98870.00
2023-05-25T06:44:19.572Z,98872.97
2023-05-25T06:46:48.835Z,98870.94
2023-05-25T06:49:17.414Z,98867.44
2023-05-25T06:51:47.048Z,98862.41
2023-05-25T06:54:15.494Z,98868.38
2023-05-25T06:56:43.750Z,98862.47
2023-05-25T06:59:11.872Z,98870.97
2023-05-25T07:01:40.039Z,98869.72
2023-05-25T07:04:08.143Z,98875.50
2023-05-25T07:06:36.610Z,98866.16
2023-05-25T07:09:06.156Z,98879.16
2023-05-25T07:11:34.475Z,98886.41
2023-05-25T07:14:02.623Z,98886.88
2023-05-25T07:16:32.141Z,98886.56
2023-05-25T07:19:00.627Z,98883.94
2023-05-25T07:21:28.908Z,98885.38
2023-05-25T07:23:57.057Z,98885.00
2023-05-25T07:26:28.056Z,98882.41
2023-05-25T07:28:56.132Z,98881.44
2023-05-25T07:31:32.841Z,98882.59
2023-05-25T07:34:08.537Z,98883.59
2023-05-25T07:36:44.107Z,98884.56
2023-05-25T07:39:12.911Z,98885.44
2023-05-25T07:41:42.289Z,98884.88
2023-05-25T07:44:10.327Z,98883.69
2023-05-25T07:46:38.460Z,98890.03
2023-05-25T07:49:12.016Z,98888.47
2023-05-25T07:51:40.473Z,98891.50
2023-05-25T07:54:08.557Z,98888.66
2023-05-25T07:56:36.717Z,98896.03
2023-05-25T07:59:06.202Z,98896.06
2023-05-25T08:01:34.400Z,98891.47
2023-05-25T08:04:02.711Z,98890.50
2023-05-25T08:06:32.540Z,98891.47
2023-05-25T08:09:00.586Z,98892.75
2023-05-25T08:11:28.840Z,98892.63
2023-05-25T08:13:56.926Z,98892.63
2023-05-25T08:16:26.935Z,98894.63
2023-05-25T08:18:55.020Z,98886.63
2023-05-25T08:21:23.141Z,98884.66
2023-05-25T08:23:51.714Z,98890.28
2023-05-25T08:26:34.716Z,98896.47
2023-05-25T08:29:06.570Z,98893.09
2023-05-25T08:31:37.456Z,98889.38
2023-05-25T08:34:05.596Z,98890.72
2023-05-25T08:36:35.972Z,98894.53
2023-05-25T08:39:04.815Z,98891.88
2023-05-25T08:41:34.419Z,98892.44
2023-05-25T08:44:06.390Z,98894.56
2023-05-25T08:46:36.930Z,98891.94
2023-05-25T08:49:10.067Z,98893.72
2023-05-25T08:51:39.308Z,98902.69
2023-05-25T08:54:10.334Z,98910.75
2023-05-25T08:56:47.851Z,98889.75
2023-05-25T08:59:24.951Z,98879.00
2023-05-25T09:02:08.984Z,98890.72
2023-05-25T09:04:37.456Z,98894.63
2023-05-25T09:07:10.851Z,98891.72
2023-05-25T09:09:41.236Z,98898.19
2023-05-25T09:12:10.328Z,98908.06
2023-05-25T09:14:45.521Z,98897.28
2023-05-25T09:17:16.177Z,98897.31
2023-05-25T09:19:44.617Z,98906.66
2023-05-25T09:22:16.542Z,98905.13
2023-05-25T09:24:46.073Z,98901.03
2023-05-25T09:27:17.605Z,98920.44
2023-05-25T09:29:46.451Z,98916.47
2023-05-25T09:32:17.566Z,98917.44
2023-05-25T09:34:45.900Z,98918.50
2023-05-25T09:37:16.823Z,98913.16
2023-05-25T09:39:47.956Z,98919.91
2023-05-25T09:42:16.394Z,98923.00
2023-05-25T09:44:44.858Z,98917.09
2023-05-25T09:47:14.094Z,98918.53
2023-05-25T09:49:44.625Z,98916.44
2023-05-25T09:52:13.826Z,98915.06
2023-05-25T09:54:45.446Z,98911.31
2023-05-25T09:57:13.536Z,98909.94
2023-05-25T09:59:42.702Z,98899.81
2023-05-25T10:02:10.825Z,98907.41
2023-05-25T10:04:39.008Z,98906.84
2023-05-25T10:07:09.923Z,98915.47
2023-05-25T10:09:42.496Z,98901.19
2023-05-25T10:12:11.363Z,98901.34
2023-05-25T10:14:39.846Z,98904.78
2023-05-25T10:17:09.452Z,98901.31
2023-05-25T10:19:42.066Z,98902.38
2023-05-25T10:22:17.325Z,98901.34
2023-05-25T10:24:54.975Z,98899.09
2023-05-25T10:27:27.593Z,98903.16
2023-05-25T10:29:58.036Z,98900.91
2023-05-25T10:32:27.407Z,98903.84
2023-05-25T10:34:58.414Z,98907.78
2023-05-25T10:37:29.225Z,98903.38
2023-05-25T10:39:58.963Z,98918.19
2023-05-25T10:42:29.683Z,98898.03
2023-05-25T10:44:58.873Z,98901.56
2023-05-25T10:47:27.463Z,98896.53
2023-05-25T10:49:58.031Z,98897.00
2023-05-25T10:52:30.949Z,98894.28
2023-05-25T10:55:01.999Z,98902.09
2023-05-25T10:57:30.614Z,98899.38
2023-05-25T11:00:06.438Z,98902.75
2023-05-25T11:02:51.464Z,98895.75
2023-05-25T11:05:34.433Z,98897.56
2023-05-25T11:08:06.463Z,98894.13
2023-05-25T11:10:54.186Z,98907.16
2023-05-25T11:13:41.380Z,98900.25
2023-05-25T11:16:24.610Z,98904.09
2023-05-25T11:18:55.908Z,98899.66
2023-05-25T11:21:40.905Z,98892.50
2023-05-25T11:24:15.334Z,98898.13
2023-05-25T11:26:56.011Z,98888.59
2023-05-25T11:29:25.930Z,98898.94
2023-05-25T11:31:56.107Z,98899.31
2023-05-25T11:34:29.019Z,98903.31
2023-05-25T11:37:01.757Z,98896.22
2023-05-25T11:39:32.279Z,98900.75
2023-05-25T11:42:05.094Z,98899.31
2023-05-25T11:44:34.617Z,98895.16
2023-05-25T11:47:06.108Z,98882.88
2023-05-25T11:49:34.227Z,98879.31
2023-05-25T11:52:07.179Z,98886.09
2023-05-25T11:54:37.113Z,98890.47
2023-05-25T11:57:06.509Z,98886.94
2023-05-25T11:59:34.678Z,98880.94
2023-05-25T12:02:04.153Z,98888.94
2023-05-25T12:04:34.169Z,98899.09
2023-05-25T12:07:05.839Z,98896.06
2023-05-25T12:09:34.322Z,98877.78
2023-05-25T12:12:05.131Z,98879.97
2023-05-25T12:14:36.200Z,98873.50
2023-05-25T12:17:04.700Z,98880.50
2023-05-25T12:19:33.333Z,98890.91
2023-05-25T12:22:01.502Z,98889.69
2023-05-25T12:24:29.605Z,98880.78
2023-05-25T12:26:59.314Z,98871.63
2023-05-25T12:29:29.507Z,98883.84
2023-05-25T12:32:04.538Z,98876.41
2023-05-25T12:34:32.768Z,98887.41
2023-05-25T12:37:01.641Z,98888.63
2023-05-25T12:39:39.373Z,98889.22
2023-05-25T12:42:15.364Z,98883.06
2023-05-25T12:44:46.666Z,98880.75
2023-05-25T12:47:16.833Z,98887.91
2023-05-25T12:49:46.314Z,98879.28
2023-05-25T12:52:33.298Z,98872.91
2023-05-25T12:55:19.762Z,98871.38
2023-05-25T12:57:52.549Z,98865.38
2023-05-25T13:00:23.807Z,98864.19
2023-05-25T13:02:52.406Z,98864.19
2023-05-25T13:05:24.825Z,98856.34
2023-05-25T13:07:53.446Z,98859.66
2023-05-25T13:10:21.733Z,98858.91
2023-05-25T13:12:51.890Z,98866.47
2023-05-25T13:15:22.909Z,98858.09
2023-05-25T13:17:52.152Z,98857.78
2023-05-25T13:20:23.184Z,98853.50
2023-05-25T13:22:52.760Z,98850.41
2023-05-25T13:25:22.436Z,98849.69
2023-05-25T13:27:52.839Z,98840.28
2023-05-25T13:30:23.516Z,98837.94
2023-05-25T13:32:52.936Z,98845.03
2023-05-25T13:35:34.232Z,98839.06
2023-05-25T13:38:02.454Z,98846.13
2023-05-25T13:40:30.542Z,98848.38
2023-05-25T13:42:58.673Z,98848.13
2023-05-25T13:45:28.306Z,98836.16
2023-05-25T13:47:56.525Z,98838.91
2023-05-25T13:50:24.817Z,98842.00
2023-05-25T13:52:53.062Z,98847.09
2023-05-25T13:55:21.138Z,98841.13
2023-05-25T13:57:49.380Z,98831.13
2023-05-25T14:00:18.127Z,98843.34
2023-05-25T14:02:47.752Z,98831.53
2023-05-25T14:05:15.880Z,98821.00
2023-05-25T14:07:44.600Z,98824.69
2023-05-25T14:10:12.801Z,98836.50
2023-05-25T14:12:41.739Z,98838.16
2023-05-25T14:15:10.843Z,98836.09
2023-05-25T14:17:39.106Z,98840.25
2023-05-25T14:20:09.896Z,98837.59
2023-05-25T14:22:38.116Z,98846.97
2023-05-25T14:25:07.142Z,98842.25
2023-05-25T14:27:35.227Z,98836.28
2023-05-25T14:30:03.310Z,98841.69
2023-05-25T14:32:31.527Z,98839.91
2023-05-25T14:34:59.832Z,98833.16
2023-05-25T14:37:29.286Z,98837.94
2023-05-25T14:39:57.655Z,98844.34
2023-05-25T14:42:25.813Z,98834.66
2023-05-25T14:44:53.994Z,98835.78
2023-05-25T14:47:22.065Z,98834.28
2023-05-25T14:49:50.227Z,98832.34
2023-05-25T14:52:18.413Z,98820.53
2023-05-25T14:54:47.898Z,98822.97
2023-05-25T14:57:17.016Z,98822.31
2023-05-25T14:59:45.167Z,98830.31
2023-05-25T15:02:13.307Z,98820.25
2023-05-25T15:04:41.500Z,98823.38
2023-05-25T15:07:11.533Z,98822.63
2023-05-25T15:09:41.010Z,98826.91
2023-05-25T15:12:10.442Z,98827.84
2023-05-25T15:14:40.883Z,98823.16
2023-05-25T15:17:09.090Z,98820.28
2023-05-25T15:19:37.276Z,98823.16
2023-05-25T15:22:05.830Z,98825.69
2023-05-25T15:24:35.448Z,98816.41
2023-05-25T15:27:05.170Z,98817.63
2023-05-25T15:29:34.696Z,98804.19
2023-05-25T15:32:02.860Z,98814.81
2023-05-25T15:34:31.332Z,98810.53
2023-05-25T15:37:00.342Z,98801.00
2023-05-25T15:39:28.534Z,98805.03
2023-05-25T15:41:56.612Z,98817.81
2023-05-25T15:44:24.766Z,98816.81
2023-05-25T15:46:54.231Z,98807.84
2023-05-25T15:49:22.277Z,98808.09
2023-05-25T15:51:53.276Z,98814.94
2023-05-25T15:54:21.466Z,98808.59
2023-05-25T15:56:49.621Z,98809.88
2023-05-25T15:59:17.709Z,98808.19
2023-05-25T16:01:45.844Z,98807.19
2023-05-25T16:04:15.522Z,98809.81
2023-05-25T16:06:43.783Z,98799.16
2023-05-25T16:09:12.453Z,98795.69
2023-05-25T16:11:40.621Z,98799.44
2023-05-25T16:14:08.753Z,98790.16
2023-05-25T16:16:36.989Z,98796.00
2023-05-25T16:19:05.136Z,98795.75
2023-05-25T16:21:37.764Z,98797.34
2023-05-25T16:24:06.572Z,98801.53
2023-05-25T16:26:35.216Z,98801.00
2023-05-25T16:29:03.361Z,98802.91
2023-05-25T16:31:31.501Z,98807.25
2023-05-25T16:33:59.688Z,98798.03
2023-05-25T16:36:35.672Z,98806.94
2023-05-25T16:39:06.270Z,98801.75
2023-05-25T16:41:34.390Z,98801.34
2023-05-25T16:44:02.576Z,98800.97
2023-05-25T16:46:30.826Z,98804.81
2023-05-25T16:48:58.909Z,98801.28
2023-05-25T16:51:27.119Z,98802.78
2023-05-25T16:53:56.208Z,98801.09
2023-05-25T16:56:26.404Z,98795.44
2023-05-25T16:58:54.509Z,98794.53
2023-05-25T17:01:22.684Z,98799.25
2023-05-25T17:03:50.870Z,98798.38
2023-05-25T17:06:19.109Z,98799.81
2023-05-25T17:08:47.151Z,98800.41
2023-05-25T17:11:15.310Z,98811.25
2023-05-25T17:13:44.744Z,98800.16
2023-05-25T17:16:12.803Z,98804.72
2023-05-25T17:18:41.765Z,98813.19
2023-05-25T17:21:09.860Z,98820.47
2023-05-25T17:23:37.941Z,98825.81
2023-05-25T17:26:06.417Z,98822.47
2023-05-25T17:28:34.536Z,98815.59
2023-05-25T17:31:04.251Z,98821.78
2023-05-25T17:33:37.159Z,98820.63
2023-05-25T17:36:06.563Z,98823.09
2023-05-25T17:38:42.532Z,98816.47
2023-05-25T17:41:11.656Z,98819.31
2023-05-25T17:43:39.720Z,98814.97
2023-05-25T17:46:09.352Z,98825.00
2023-05-25T17:48:38.042Z,98823.34
2023-05-25T17:51:06.138Z,98822.16
2023-05-25T17:53:34.216Z,98810.00
2023-05-25T17:56:02.307Z,98817.97
2023-05-25T17:58:30.729Z,98816.56
2023-05-25T18:00:59.035Z,98811.75
2023-05-25T18:03:28.707Z,98808.56
2023-05-25T18:05:56.865Z,98808.81
2023-05-25T18:08:25.083Z,98815.00
2023-05-25T18:10:53.157Z,98806.31
2023-05-25T18:13:21.204Z,98805.66
2023-05-25T18:15:49.513Z,98804.78
2023-05-25T18:18:20.738Z,98801.56
2023-05-25T18:20:50.318Z,98802.09
2023-05-25T18:23:18.501Z,98799.97
2023-05-25T18:25:46.797Z,98806.19
2023-05-25T18:28:15.282Z,98799.44
2023-05-25T18:30:43.689Z,98804.94
2023-05-25T18:33:11.896Z,98804.25
2023-05-25T18:35:39.970Z,98809.38
2023-05-25T18:38:09.463Z,98804.25
2023-05-25T18:40:37.523Z,98813.91
2023-05-25T18:43:12.201Z,98815.59
2023-05-25T18:45:40.700Z,98825.09
2023-05-25T18:48:09.126Z,98821.06
2023-05-25T18:50:37.733Z,98833.94
2023-05-25T18:53:07.807Z,98830.19
2023-05-25T18:55:37.416Z,98835.47
2023-05-25T18:58:05.740Z,98832.69
2023-05-25T19:00:34.330Z,98837.00
2023-05-25T19:03:02.568Z,98843.59
2023-05-25T19:05:30.717Z,98841.59
2023-05-25T19:08:00.005Z,98842.06
2023-05-25T19:10:28.834Z,98835.50
2023-05-25T19:12:58.548Z,98844.34
2023-05-25T19:15:26.961Z,98843.09
2023-05-25T19:17:55.146Z,98844.19
2023-05-25T19:20:23.318Z,98845.50
2023-05-25T19:22:51.591Z,98851.59
2023-05-25T19:25:19.870Z,98848.28
2023-05-25T19:27:48.037Z,98850.13
2023-05-25T19:30:17.766Z,98838.50
2023-05-25T19:32:46.035Z,98846.91
2023-05-25T19:35:14.939Z,98852.91
2023-05-25T19:37:43.090Z,98860.88
2023-05-25T19:40:13.325Z,98847.56
2023-05-25T19:42:41.790Z,98852.63
2023-05-25T19:45:10.372Z,98852.28
2023-05-25T19:47:39.875Z,98862.13
2023-05-25T19:50:09.932Z,98858.97
2023-05-25T19:52:38.070Z,98859.53
2023-05-25T19:55:06.848Z,98859.56
2023-05-25T19:57:34.964Z,98853.16
2023-05-25T20:00:03.783Z,98847.19
2023-05-25T20:02:41.180Z,98850.13
2023-05-25T20:05:10.262Z,98844.88
2023-05-25T20:07:38.604Z,98852.38
2023-05-25T20:10:07.547Z,98851.66
2023-05-25T20:12:35.659Z,98861.31
2023-05-25T20:15:03.787Z,98857.06
2023-05-25T20:17:31.851Z,98854.97
2023-05-25T20:20:01.748Z,98857.25
2023-05-25T20:22:29.935Z,98845.19
2023-05-25T20:24:59.799Z,98849.53
2023-05-25T20:27:27.945Z,98847.59
2023-05-25T20:29:56.201Z,98843.88
2023-05-25T20:32:24.413Z,98849.78
2023-05-25T20:34:52.552Z,98849.91
2023-05-25T20:37:22.050Z,98855.69
2023-05-25T20:39:50.172Z,98848.31
2023-05-25T20:42:18.236Z,98843.13
2023-05-25T20:44:46.306Z,98844.72
2023-05-25T20:47:14.408Z,98854.28
2023-05-25T20:49:42.655Z,98850.19
2023-05-25T20:52:10.728Z,98853.94
2023-05-25T20:54:44.608Z,98864.19
2023-05-25T20:57:13.066Z,98856.78
2023-05-25T20:59:41.334Z,98862.25
2023-05-25T21:02:09.688Z,98855.00
2023-05-25T21:04:37.711Z,98862.38
2023-05-25T21:07:06.013Z,98855.06
2023-05-25T21:09:34.114Z,98857.22
2023-05-25T21:12:03.514Z,98856.25
2023-05-25T21:14:31.557Z,98851.09
2023-05-25T21:16:59.570Z,98852.94
2023-05-25T21:19:27.693Z,98856.78
2023-05-25T21:21:55.812Z,98847.28
2023-05-25T21:24:23.992Z,98854.75
2023-05-25T21:26:52.005Z,98852.81
2023-05-25T21:29:21.632Z,98847.47
2023-05-25T21:31:49.819Z,98847.25
2023-05-25T21:34:17.880Z,98847.78
2023-05-25T21:36:45.899Z,98858.94
2023-05-25T21:39:14.033Z,98859.47
2023-05-25T21:41:42.357Z,98867.91
2023-05-25T21:44:10.438Z,98861.19
2023-05-25T21:46:40.269Z,98860.59
2023-05-25T21:49:08.343Z,98864.09
2023-05-25T21:51:36.608Z,98854.34
2023-05-25T21:54:04.923Z,98860.84
2023-05-25T21:56:33.024Z,98848.19
2023-05-25T21:59:01.197Z,98850.84
2023-05-25T22:01:29.280Z,98856.16
2023-05-25T22:03:58.743Z,98850.88
2023-05-25T22:06:26.836Z,98854.72
2023-05-25T22:08:54.917Z,98859.59
2023-05-25T22:11:23.038Z,98862.81
2023-05-25T22:13:51.122Z,98862.81
2023-05-25T22:16:19.285Z,98860.63
2023-05-25T22:18:47.424Z,98855.22
2023-05-25T22:21:17.037Z,98855.59
2023-05-25T22:23:45.113Z,98856.91
2023-05-25T22:26:13.162Z,98851.78
2023-05-25T22:28:41.186Z,98849.38
2023-05-25T22:31:10.461Z,98848.16
2023-05-25T22:33:38.465Z,98847.25
2023-05-25T22:36:07.064Z,98856.81
2023-05-25T22:38:36.716Z,98851.75
2023-05-25T22:41:04.760Z,98862.53
2023-05-25T22:43:32.816Z,98861.38
2023-05-25T22:46:00.956Z,98861.88
2023-05-25T22:48:29.134Z,98866.19
2023-05-25T22:50:57.686Z,98869.19
2023-05-25T22:53:25.761Z,98854.63
2023-05-25T22:55:55.198Z,98857.44
2023-05-25T22:58:23.283Z,98856.28
2023-05-25T23:00:51.378Z,98852.56
2023-05-25T23:03:19.498Z,98853.34
2023-05-25T23:05:47.882Z,98850.03
2023-05-25T23:08:16.068Z,98839.81
2023-05-25T23:10:44.111Z,98843.72
2023-05-25T23:13:14.919Z,98843.19
2023-05-25T23:15:44.396Z,98848.16
2023-05-25T23:18:12.635Z,98848.28
2023-05-25T23:20:41.065Z,98837.25
2023-05-25T23:23:09.167Z,98846.16
2023-05-25T23:25:37.761Z,98843.56
2023-05-25T23:28:06.274Z,98842.38
2023-05-25T23:30:35.705Z,98846.59
2023-05-25T23:33:03.790Z,98853.03
2023-05-25T23:35:31.842Z,98840.78
2023-05-25T23:38:01.851Z,98844.03
2023-05-25T23:40:30.210Z,98847.91
2023-05-25T23:43:05.027Z,98836.56
2023-05-25T23:45:33.363Z,98850.63
2023-05-25T23:48:02.859Z,98843.00
2023-05-25T23:50:31.069Z,98846.72
2023-05-25T23:52:59.100Z,98852.72
2023-05-25T23:55:27.162Z,98840.47
2023-05-25T23:57:55.192Z,98844.06
